Time;durP1;ratioP1;P1;durP2;ratioP2;P2;SDS_P1;SDS_P2;PMS_P1;PMS_P2;Temp;Humidity;BMP_temperature;BMP_pressure;BME280_temperature;BME280_humidity;BME280_pressure;Samples;Min_cycle;Max_cycle;Signal;HPM_P1;HPM_P2
2020/12/31 00:01:26;;;;;;;13.95;7.37;;;;;;;7.77;100.00;98815.11;1740196;82;21168;-77
2020/12/31 00:03:54;;;;;;;18.90;8.03;;;;;;;7.75;100.00;98813.13;1734107;82;21318;-77
2020/12/31 00:06:22;;;;;;;15.93;6.55;;;;;;;7.74;100.00;98816.25;1716139;82;21202;-77
2020/12/31 00:08:49;;;;;;;18.55;7.30;;;;;;;7.76;100.00;98817.39;1723705;82;21308;-80
2020/12/31 00:11:16;;;;;;;20.65;8.60;;;;;;;7.75;100.00;98819.20;1713093;82;21175;-79
2020/12/31 00:13:44;;;;;;;19.95;7.65;;;;;;;7.75;100.00;98819.70;1723709;82;21337;-78
2020/12/31 00:16:12;;;;;;;16.52;7.65;;;;;;;7.71;100.00;98806.02;1720432;82;21659;-78
2020/12/31 00:18:40;;;;;;;15.60;6.83;;;;;;;7.72;100.00;98806.83;1723947;82;21345;-77
2020/12/31 00:21:08;;;;;;;19.02;7.53;;;;;;;7.76;100.00;98812.13;1723257;82;21170;-77
2020/12/31 00:23:36;;;;;;;16.60;7.90;;;;;;;7.74;100.00;98814.09;1725596;82;21626;-78
2020/12/31 00:26:04;;;;;;;18.45;8.38;;;;;;;7.72;100.00;98815.55;1701242;83;21155;-78
2020/12/31 00:28:32;;;;;;;16.70;8.18;;;;;;;7.69;100.00;98821.13;1715979;83;21186;-78
2020/12/31 00:31:00;;;;;;;17.30;8.00;;;;;;;7.71;100.00;98814.41;1692352;82;21152;-78
2020/12/31 00:33:29;;;;;;;17.77;8.53;;;;;;;7.71;100.00;98809.14;1724410;82;21210;-78
2020/12/31 00:35:57;;;;;;;17.40;8.73;;;;;;;7.70;100.00;98810.11;1723760;82;21615;-79
2020/12/31 00:38:24;;;;;;;17.95;8.60;;;;;;;7.67;100.00;98811.25;1722668;82;21170;-78
2020/12/31 00:40:52;;;;;;;20.88;9.38;;;;;;;7.67;100.00;98814.34;1723621;82;21350;-79
2020/12/31 00:43:22;;;;;;;20.40;8.60;;;;;;;7.68;100.00;98812.06;1714847;82;21181;-78
2020/12/31 00:45:49;;;;;;;16.87;8.55;;;;;;;7.69;100.00;98804.02;1729909;82;21309;-78
2020/12/31 00:48:17;;;;;;;18.90;8.83;;;;;;;7.68;100.00;98804.98;1735372;82;21317;-78
2020/12/31 00:50:45;;;;;;;20.52;9.68;;;;;;;7.67;100.00;98817.83;1736941;82;21175;-78
2020/12/31 00:53:14;;;;;;;17.90;8.08;;;;;;;7.67;100.00;98817.83;1723982;82;21627;-78
2020/12/31 00:55:42;;;;;;;21.77;8.90;;;;;;;7.70;100.00;98821.45;1713212;82;21314;-77
2020/12/31 00:58:11;;;;;;;20.65;9.18;;;;;;;7.71;100.00;98814.41;1717279;82;21174;-77
2020/12/31 01:00:38;;;;;;;18.15;9.05;;;;;;;7.70;100.00;98816.69;1726450;82;21619;-78
2020/12/31 01:03:08;;;;;;;17.05;8.23;;;;;;;7.68;100.00;98816.02;1724828;82;21147;-78
2020/12/31 01:05:36;;;;;;;15.88;8.05;;;;;;;7.70;100.00;98828.53;1716096;82;21143;-77
2020/12/31 01:08:03;;;;;;;19.30;9.13;;;;;;;7.72;100.00;98829.20;1731788;82;21202;-78
2020/12/31 01:10:30;;;;;;;22.10;8.90;;;;;;;7.72;100.00;98820.81;1732074;82;21178;-78
2020/12/31 01:12:58;;;;;;;14.63;8.00;;;;;;;7.69;100.00;98811.92;1729387;82;21703;-77
2020/12/31 01:15:26;;;;;;;20.50;8.08;;;;;;;7.72;100.00;98821.30;1730999;82;21196;-77
2020/12/31 01:17:54;;;;;;;15.80;8.15;;;;;;;7.75;100.00;98826.28;1733437;82;21644;-78
2020/12/31 01:20:21;;;;;;;19.37;9.53;;;;;;;7.73;100.00;98820.34;1718116;82;21758;-78
2020/12/31 01:22:49;;;;;;;18.07;8.70;;;;;;;7.72;100.00;98818.67;1720612;82;21178;-78
2020/12/31 01:25:16;;;;;;;16.82;7.70;;;;;;;7.71;100.00;98824.94;1732704;82;21150;-78
2020/12/31 01:27:44;;;;;;;18.48;8.75;;;;;;;7.76;100.00;98817.39;1725916;82;21136;-77
2020/12/31 01:30:12;;;;;;;17.48;8.98;;;;;;;7.76;100.00;98823.97;1728663;82;21186;-77
2020/12/31 01:32:40;;;;;;;18.12;9.03;;;;;;;7.74;100.00;98820.20;1731515;82;21326;-75
2020/12/31 01:35:07;;;;;;;14.63;8.00;;;;;;;7.73;100.00;98820.34;1720772;82;21366;-77
2020/12/31 01:37:35;;;;;;;20.48;9.08;;;;;;;7.75;100.00;98821.83;1723809;82;21207;-77
2020/12/31 01:40:03;;;;;;;16.48;8.38;;;;;;;7.77;100.00;98822.51;1732108;82;21163;-77
2020/12/31 01:42:30;;;;;;;18.00;9.20;;;;;;;7.76;100.00;98830.55;1722688;82;21186;-77
2020/12/31 01:44:59;;;;;;;17.42;9.25;;;;;;;7.75;100.00;98827.59;1731173;82;21172;-77
2020/12/31 01:47:26;;;;;;;17.02;8.95;;;;;;;7.72;100.00;98826.57;1732761;82;21213;-77
2020/12/31 01:49:53;;;;;;;15.70;8.05;;;;;;;7.71;100.00;98820.48;1719860;82;21242;-78
2020/12/31 01:52:21;;;;;;;15.72;9.23;;;;;;;7.74;100.00;98820.20;1736146;82;21195;-78
2020/12/31 01:54:48;;;;;;;20.37;9.33;;;;;;;7.74;100.00;98825.93;1731258;82;21183;-76
2020/12/31 01:57:16;;;;;;;18.57;10.18;;;;;;;7.71;100.00;98815.23;1700604;82;21216;-77
2020/12/31 01:59:45;;;;;;;23.98;9.63;;;;;;;7.69;100.00;98817.19;1723786;82;21344;-77
2020/12/31 02:02:12;;;;;;;19.30;11.53;;;;;;;7.70;100.00;98818.00;1740525;82;21227;-76
2020/12/31 02:04:40;;;;;;;20.68;12.50;;;;;;;7.69;100.00;98809.28;1725670;82;21207;-76
2020/12/31 02:07:08;;;;;;;22.17;13.65;;;;;;;7.67;100.00;98809.08;1727227;82;21603;-76
2020/12/31 02:09:35;;;;;;;20.75;13.48;;;;;;;7.65;100.00;98812.36;1728208;82;21254;-76
2020/12/31 02:12:04;;;;;;;19.02;11.28;;;;;;;7.67;100.00;98809.08;1723392;82;21615;-77
2020/12/31 02:14:32;;;;;;;16.87;11.12;;;;;;;7.69;100.00;98807.16;1723268;82;21309;-76
2020/12/31 02:17:00;;;;;;;14.38;9.63;;;;;;;7.67;100.00;98798.55;1728992;82;21302;-76
2020/12/31 02:19:28;;;;;;;18.85;9.28;;;;;;;7.65;100.00;98791.30;1725753;82;21715;-76
2020/12/31 02:21:56;;;;;;;17.80;9.25;;;;;;;7.64;100.00;98789.17;1722836;82;21285;-76
2020/12/31 02:24:24;;;;;;;18.73;9.40;;;;;;;7.66;100.00;98787.21;1727574;82;21596;-76
2020/12/31 02:26:51;;;;;;;15.88;9.83;;;;;;;7.65;100.00;98791.30;1720355;82;21596;-77
2020/12/31 02:29:20;;;;;;;16.97;9.93;;;;;;;7.63;100.00;98790.16;1727358;82;21305;-77
2020/12/31 02:31:48;;;;;;;14.85;8.90;;;;;;;7.61;100.00;98790.77;1716072;82;21139;-76
2020/12/31 02:34:16;;;;;;;15.10;9.35;;;;;;;7.62;100.00;98776.66;1724897;82;21187;-76
2020/12/31 02:36:45;;;;;;;15.48;9.48;;;;;;;7.62;100.00;98792.94;1718951;82;21163;-76
2020/12/31 02:39:13;;;;;;;16.93;9.95;;;;;;;7.56;100.00;98789.92;1731637;82;21154;-76
2020/12/31 02:41:42;;;;;;;13.83;8.85;;;;;;;7.53;100.00;98774.43;1732016;82;21183;-76
2020/12/31 02:44:10;;;;;;;17.52;9.50;;;;;;;7.55;100.00;98778.23;1740275;82;21416;-76
2020/12/31 02:46:37;;;;;;;16.07;9.40;;;;;;;7.52;100.00;98783.31;1736287;82;21174;-76
2020/12/31 02:49:06;;;;;;;18.37;9.60;;;;;;;7.50;100.00;98777.84;1723265;82;21171;-76
2020/12/31 02:51:34;;;;;;;18.87;9.30;;;;;;;7.49;100.00;98781.47;1694564;82;21167;-76
2020/12/31 02:54:03;;;;;;;15.05;8.45;;;;;;;7.49;100.00;98794.13;1729992;82;21321;-76
2020/12/31 02:56:30;;;;;;;16.37;10.15;;;;;;;7.49;100.00;98782.78;1730442;82;21608;-76
2020/12/31 02:58:58;;;;;;;18.05;9.88;;;;;;;7.49;100.00;98780.97;1737660;82;21545;-76
2020/12/31 03:01:26;;;;;;;14.75;8.50;;;;;;;7.52;100.00;98796.47;1723825;82;21329;-76
2020/12/31 03:03:54;;;;;;;14.98;9.63;;;;;;;7.54;100.00;98775.28;1723728;82;21166;-76
2020/12/31 03:06:22;;;;;;;19.70;10.25;;;;;;;7.53;100.00;98781.00;1720821;82;21219;-76
2020/12/31 03:08:49;;;;;;;17.10;9.75;;;;;;;7.51;100.00;98775.56;1728928;82;21144;-76
2020/12/31 03:11:24;;;;;;;14.23;8.30;;;;;;;7.48;100.00;98771.45;1726967;82;21174;-76
2020/12/31 03:13:52;;;;;;;15.08;8.68;;;;;;;7.48;100.00;98780.66;1716116;83;21142;-76
2020/12/31 03:16:21;;;;;;;15.72;8.78;;;;;;;7.46;100.00;98761.53;1719646;82;21687;-77
2020/12/31 03:18:49;;;;;;;18.15;8.60;;;;;;;7.42;100.00;98761.50;1728130;82;21219;-77
2020/12/31 03:21:17;;;;;;;15.03;8.70;;;;;;;7.41;100.00;98761.64;1724867;82;21152;-77
2020/12/31 03:23:44;;;;;;;16.77;9.75;;;;;;;7.43;100.00;98757.09;1734219;82;21300;-77
2020/12/31 03:26:12;;;;;;;18.20;10.48;;;;;;;7.42;100.00;98762.00;1717624;82;21587;-76
2020/12/31 03:28:39;;;;;;;20.15;11.28;;;;;;;7.39;100.00;98744.23;1727585;82;21175;-76
2020/12/31 03:31:08;;;;;;;17.40;10.43;;;;;;;7.37;100.00;98737.48;1717312;82;21313;-76
2020/12/31 03:33:36;;;;;;;16.57;9.90;;;;;;;7.40;100.00;98741.10;1715914;82;21182;-76
2020/12/31 03:36:04;;;;;;;21.07;10.48;;;;;;;7.39;100.00;98746.04;1720390;82;21210;-76
2020/12/31 03:38:31;;;;;;;19.42;10.60;;;;;;;7.35;100.00;98751.23;1732384;82;21627;-76
2020/12/31 03:40:59;;;;;;;20.35;10.63;;;;;;;7.31;100.00;98749.89;1723404;82;21143;-76
2020/12/31 03:43:27;;;;;;;21.42;10.25;;;;;;;7.32;100.00;98743.17;1724675;82;21357;-76
2020/12/31 03:45:55;;;;;;;21.65;11.80;;;;;;;7.32;100.00;98745.80;1717685;82;21575;-76
2020/12/31 03:48:23;;;;;;;22.93;11.15;;;;;;;7.30;100.00;98742.50;1732110;82;21196;-76
2020/12/31 03:50:50;;;;;;;19.23;11.33;;;;;;;7.27;100.00;98741.47;1725258;82;21144;-76
2020/12/31 03:53:19;;;;;;;23.55;11.65;;;;;;;7.29;100.00;98746.09;1715986;83;21143;-76
2020/12/31 03:55:47;;;;;;;20.00;11.25;;;;;;;7.31;100.00;98738.05;1716026;83;21253;-76
2020/12/31 03:58:15;;;;;;;21.68;12.23;;;;;;;7.29;100.00;98750.53;1720333;82;21238;-76
2020/12/31 04:00:43;;;;;;;20.62;11.08;;;;;;;7.27;100.00;98734.08;1727877;82;21171;-76
2020/12/31 04:03:12;;;;;;;25.20;12.35;;;;;;;7.27;100.00;98736.70;1720379;82;21582;-76
2020/12/31 04:05:39;;;;;;;20.60;10.95;;;;;;;7.30;100.00;98741.67;1719267;82;21131;-76
2020/12/31 04:08:07;;;;;;;24.72;13.25;;;;;;;7.28;100.00;98739.19;1730435;82;21351;-75
2020/12/31 04:10:34;;;;;;;27.25;12.98;;;;;;;7.28;100.00;98753.66;1740680;82;21180;-75
2020/12/31 04:13:01;;;;;;;23.27;11.28;;;;;;;7.30;100.00;98753.52;1724540;82;21769;-76
2020/12/31 04:15:29;;;;;;;20.88;11.15;;;;;;;7.30;100.00;98742.99;1727741;82;21197;-75
2020/12/31 04:17:57;;;;;;;18.95;11.05;;;;;;;7.27;100.00;98753.30;1732241;82;21171;-76
2020/12/31 04:20:24;;;;;;;20.25;10.58;;;;;;;7.25;100.00;98750.50;1727448;82;21648;-74
2020/12/31 04:22:52;;;;;;;21.30;11.48;;;;;;;7.24;100.00;98775.13;1727435;82;21734;-77
2020/12/31 04:25:20;;;;;;;19.02;11.00;;;;;;;7.23;100.00;98757.22;1739020;82;21227;-75
2020/12/31 04:27:48;;;;;;;24.40;12.40;;;;;;;7.24;100.00;98755.41;1718048;82;21611;-76
2020/12/31 04:30:15;;;;;;;20.57;10.53;;;;;;;7.23;100.00;98753.27;1726911;82;21175;-76
2020/12/31 04:32:43;;;;;;;19.32;10.08;;;;;;;7.23;100.00;98773.48;1727442;82;21199;-76
2020/12/31 04:35:11;;;;;;;19.20;11.05;;;;;;;7.23;100.00;98769.05;1720194;82;21749;-75
2020/12/31 04:37:39;;;;;;;21.62;11.70;;;;;;;7.20;100.00;98772.00;1719612;82;21296;-76
2020/12/31 04:40:06;;;;;;;20.27;11.00;;;;;;;7.18;100.00;98766.87;1720389;82;21223;-75
2020/12/31 04:42:36;;;;;;;18.65;10.00;;;;;;;7.17;100.00;98775.73;1716976;82;21174;-75
2020/12/31 04:45:06;;;;;;;21.42;11.25;;;;;;;7.17;100.00;98788.87;1733304;82;21203;-76
2020/12/31 04:47:46;;;;;;;19.37;10.75;;;;;;;7.16;100.00;98787.23;1724915;82;21631;-75
2020/12/31 04:50:14;;;;;;;21.15;11.50;;;;;;;7.16;100.00;98793.81;1729602;82;21246;-75
2020/12/31 04:52:41;;;;;;;18.75;10.85;;;;;;;7.15;100.00;98796.09;1686266;82;21191;-76
2020/12/31 04:55:10;;;;;;;22.17;10.28;;;;;;;7.17;100.00;98798.58;1696144;82;21190;-75
2020/12/31 04:57:37;;;;;;;19.02;10.23;;;;;;;7.21;100.00;98800.42;1721227;82;21305;-75
2020/12/31 05:00:07;;;;;;;26.05;11.70;;;;;;;7.18;100.00;98799.75;1728081;82;21183;-75
2020/12/31 05:02:35;;;;;;;19.23;10.00;;;;;;;7.17;100.00;98795.45;1727892;82;21671;-75
2020/12/31 05:05:03;;;;;;;18.32;8.83;;;;;;;7.15;100.00;98794.77;1676939;82;21207;-76
2020/12/31 05:07:31;;;;;;;19.32;9.45;;;;;;;7.15;100.00;98796.58;1720524;82;21188;-75
2020/12/31 05:10:11;;;;;;;18.82;9.85;;;;;;;7.14;100.00;98795.73;1696112;83;21128;-75
2020/12/31 05:12:38;;;;;;;17.92;10.63;;;;;;;7.14;100.00;98798.86;1720568;82;21209;-75
2020/12/31 05:15:08;;;;;;;20.55;9.45;;;;;;;7.12;100.00;98808.70;1729979;82;21330;-74
2020/12/31 05:17:35;;;;;;;18.60;9.28;;;;;;;7.12;100.00;98805.58;1727981;82;21611;-74
2020/12/31 05:20:15;;;;;;;17.02;9.03;;;;;;;7.13;100.00;98805.11;1731322;82;21182;-74
2020/12/31 05:22:42;;;;;;;20.92;10.82;;;;;;;7.10;100.00;98803.58;1713268;82;21187;-75
2020/12/31 05:25:10;;;;;;;16.70;9.13;;;;;;;7.07;100.00;98807.84;1716319;82;21179;-75
2020/12/31 05:27:37;;;;;;;16.73;9.00;;;;;;;7.07;100.00;98810.47;1731637;82;21316;-74
2020/12/31 05:30:09;;;;;;;17.67;9.95;;;;;;;7.10;100.00;98815.91;1729389;82;21357;-74
2020/12/31 05:32:38;;;;;;;20.70;11.28;;;;;;;7.10;100.00;98823.30;1727700;82;21151;-74
2020/12/31 05:38:21;;;;;;;19.77;9.63;;;;;;;7.12;100.00;98817.41;1793553;78;23173;-75
2020/12/31 05:40:59;;;;;;;18.45;11.00;;;;;;;7.10;100.00;98815.91;1768338;79;21186;-74
2020/12/31 05:43:27;;;;;;;21.10;10.85;;;;;;;7.10;100.00;98820.67;1789038;80;21158;-74
2020/12/31 05:46:06;;;;;;;20.57;10.95;;;;;;;7.08;100.00;98821.31;1762883;80;21151;-74
2020/12/31 05:49:04;;;;;;;19.23;10.48;;;;;;;7.10;100.00;98825.93;1806636;78;23555;-74
2020/12/31 05:51:40;;;;;;;20.65;11.05;;;;;;;7.06;100.00;98835.59;1796093;80;21179;-74
2020/12/31 05:54:12;;;;;;;22.45;12.35;;;;;;;7.04;100.00;98836.22;1734633;83;21191;-73
2020/12/31 05:56:44;;;;;;;23.92;11.28;;;;;;;6.99;100.00;98832.70;1742160;81;21133;-74
2020/12/31 05:59:26;;;;;;;23.92;10.58;;;;;;;6.97;100.00;98844.67;1759655;81;21154;-75
2020/12/31 06:01:58;;;;;;;23.77;10.98;;;;;;;7.00;100.00;98834.37;1762680;81;21159;-75
2020/12/31 06:04:45;;;;;;;19.30;10.98;;;;;;;7.02;100.00;98831.11;1704121;83;21171;-76
2020/12/31 06:07:29;;;;;;;22.52;11.83;;;;;;;7.00;100.00;98843.08;1722397;82;21176;-75
2020/12/31 06:10:06;;;;;;;22.42;10.78;;;;;;;6.99;100.00;98841.90;1761946;81;21133;-75
2020/12/31 06:12:49;;;;;;;21.90;11.08;;;;;;;7.03;100.00;98839.81;1719076;83;21196;-73
2020/12/31 06:15:21;;;;;;;15.00;8.45;;;;;;;7.03;100.00;98847.20;1712798;82;21608;-74
2020/12/31 06:17:49;;;;;;;20.32;11.93;;;;;;;7.03;100.00;98848.52;1724254;83;21183;-73
2020/12/31 06:20:19;;;;;;;20.77;11.20;;;;;;;7.01;100.00;98854.41;1699234;82;21187;-74
2020/12/31 06:23:15;;;;;;;21.52;10.98;;;;;;;7.03;100.00;98854.27;1702752;83;21611;-74
2020/12/31 06:25:44;;;;;;;18.98;10.72;;;;;;;7.04;100.00;98859.39;1763236;81;21179;-75
2020/12/31 06:28:18;;;;;;;19.82;11.95;;;;;;;7.03;100.00;98853.77;1709120;82;21263;-74
2020/12/31 06:30:49;;;;;;;23.30;11.83;;;;;;;7.03;100.00;98856.41;1755413;81;21592;-74
2020/12/31 06:33:44;;;;;;;21.00;11.40;;;;;;;7.03;100.00;98855.59;1735667;81;21309;-73
2020/12/31 06:36:12;;;;;;;18.80;11.22;;;;;;;7.03;100.00;98860.84;1728839;83;21191;-73
2020/12/31 06:38:45;;;;;;;18.48;11.68;;;;;;;7.02;100.00;98861.34;1726711;81;21234;-75
2020/12/31 06:41:37;;;;;;;24.85;11.73;;;;;;;7.00;100.00;98858.84;1729085;83;21207;-74
2020/12/31 06:44:11;;;;;;;20.97;10.88;;;;;;;7.00;100.00;98854.09;1748110;81;21143;-76
2020/12/31 06:46:43;;;;;;;18.92;11.70;;;;;;;7.00;100.00;98851.45;1720098;83;21620;-75
2020/12/31 06:49:11;;;;;;;20.30;11.65;;;;;;;7.00;100.00;98853.59;1729183;82;21152;-73
2020/12/31 06:51:39;;;;;;;22.37;12.23;;;;;;;6.97;100.00;98852.55;1728495;83;21187;-74
2020/12/31 06:54:06;;;;;;;22.87;12.63;;;;;;;6.95;100.00;98853.69;1691801;83;21604;-75
2020/12/31 06:56:49;;;;;;;22.35;12.40;;;;;;;6.95;100.00;98861.57;1718342;82;21604;-74
2020/12/31 06:59:34;;;;;;;20.52;12.40;;;;;;;6.98;100.00;98863.92;1704146;82;21239;-74
2020/12/31 07:02:11;;;;;;;18.85;11.70;;;;;;;6.98;100.00;98867.86;1722634;83;21230;-74
2020/12/31 07:04:39;;;;;;;18.35;11.75;;;;;;;6.95;100.00;98878.66;1694117;84;21197;-74
2020/12/31 07:07:26;;;;;;;16.12;10.48;;;;;;;6.95;100.00;98874.22;1678659;84;21610;-74
2020/12/31 07:09:57;;;;;;;20.55;11.43;;;;;;;6.98;100.00;98879.70;1691875;84;21610;-75
2020/12/31 07:12:41;;;;;;;21.77;12.30;;;;;;;6.96;100.00;98878.52;1696347;84;21729;-74
2020/12/31 07:15:09;;;;;;;21.65;11.20;;;;;;;6.97;100.00;98864.38;1683517;84;21188;-73
2020/12/31 07:17:59;;;;;;;20.92;10.63;;;;;;;6.96;100.00;98859.30;1701441;84;21324;-73
2020/12/31 07:20:27;;;;;;;24.05;12.10;;;;;;;6.97;100.00;98864.87;1675957;84;21180;-73
2020/12/31 07:22:55;;;;;;;19.87;11.93;;;;;;;6.98;100.00;98874.44;1750238;81;21159;-76
2020/12/31 07:25:23;;;;;;;21.15;13.08;;;;;;;6.97;100.00;98878.02;1746346;81;21162;-74
2020/12/31 07:27:50;;;;;;;24.60;12.58;;;;;;;6.94;100.00;98878.33;1737130;82;21246;-75
2020/12/31 07:30:21;;;;;;;17.60;11.33;;;;;;;6.95;100.00;98878.66;1754266;82;21215;-75
2020/12/31 07:33:09;;;;;;;19.90;12.10;;;;;;;6.96;100.00;98873.26;1694568;82;21635;-74
2020/12/31 07:35:38;;;;;;;21.20;11.95;;;;;;;6.95;100.00;98872.91;1723638;82;21552;-74
2020/12/31 07:38:12;;;;;;;23.27;11.83;;;;;;;6.95;100.00;98877.34;1714400;82;21318;-74
2020/12/31 07:40:53;;;;;;;18.50;10.63;;;;;;;6.94;100.00;98881.78;1745314;82;21163;-75
2020/12/31 07:43:27;;;;;;;20.37;10.88;;;;;;;6.97;100.00;98880.16;1722627;82;21171;-74
2020/12/31 07:46:00;;;;;;;19.07;11.05;;;;;;;6.97;100.00;98882.78;1737045;82;21180;-75
2020/12/31 07:48:29;;;;;;;20.57;11.80;;;;;;;6.96;100.00;98885.09;1708473;83;21132;-75
2020/12/31 07:51:01;;;;;;;17.77;10.90;;;;;;;6.94;100.00;98891.47;1715480;83;21611;-75
2020/12/31 07:53:30;;;;;;;19.65;11.00;;;;;;;6.97;100.00;98895.11;1709128;83;21337;-75
2020/12/31 07:55:58;;;;;;;19.95;11.78;;;;;;;6.99;100.00;98903.22;1695138;83;21207;-75
2020/12/31 07:58:29;;;;;;;22.30;12.63;;;;;;;7.00;100.00;98904.85;1704334;83;21210;-75
2020/12/31 08:00:59;;;;;;;20.32;11.30;;;;;;;6.99;100.00;98900.59;1708424;83;21768;-76
2020/12/31 08:03:27;;;;;;;18.92;10.80;;;;;;;7.02;100.00;98906.52;1708798;83;21564;-75
2020/12/31 08:05:59;;;;;;;25.25;12.20;;;;;;;7.07;100.00;98899.01;1683134;83;21159;-74
2020/12/31 08:08:26;;;;;;;18.15;11.68;;;;;;;7.08;100.00;98909.39;1683476;83;21572;-74
2020/12/31 08:10:54;;;;;;;19.77;11.73;;;;;;;7.09;100.00;98909.74;1675358;83;21194;-74
2020/12/31 08:13:21;;;;;;;17.27;10.72;;;;;;;7.09;100.00;98908.89;1670610;85;21230;-74
2020/12/31 08:15:52;;;;;;;18.60;11.73;;;;;;;7.11;100.00;98905.66;1676511;85;21203;-74
2020/12/31 08:18:20;;;;;;;22.13;12.50;;;;;;;7.10;100.00;98912.70;1651914;85;21131;-74
2020/12/31 08:20:49;;;;;;;19.27;12.43;;;;;;;7.08;100.00;98906.76;1646144;85;21191;-75
2020/12/31 08:23:28;;;;;;;19.42;11.93;;;;;;;7.10;100.00;98905.30;1636248;86;21199;-75
2020/12/31 08:25:57;;;;;;;18.57;11.55;;;;;;;7.10;100.00;98900.86;1655988;85;21164;-74
2020/12/31 08:28:25;;;;;;;20.68;12.40;;;;;;;7.13;100.00;98901.90;1640322;86;21195;-73
2020/12/31 08:30:52;;;;;;;20.57;12.65;;;;;;;7.14;100.00;98896.97;1631593;86;21190;-74
2020/12/31 08:33:25;;;;;;;23.80;13.60;;;;;;;7.15;100.00;98899.95;1629331;87;21430;-73
2020/12/31 08:35:53;;;;;;;18.40;11.38;;;;;;;7.17;100.00;98896.69;1643120;86;21243;-74
2020/12/31 08:38:23;;;;;;;20.37;11.80;;;;;;;7.23;100.00;98897.09;1716177;83;21326;-73
2020/12/31 08:40:56;;;;;;;23.10;12.82;;;;;;;7.26;100.00;98900.75;1678960;85;21218;-73
2020/12/31 08:43:35;;;;;;;21.20;13.08;;;;;;;7.29;100.00;98895.18;1665723;86;21353;-74
2020/12/31 08:46:19;;;;;;;21.73;12.25;;;;;;;7.31;100.00;98894.08;1660285;86;21608;-74
2020/12/31 08:48:54;;;;;;;22.05;11.80;;;;;;;7.33;100.00;98888.64;1712464;83;21613;-74
2020/12/31 08:51:22;;;;;;;18.17;10.95;;;;;;;7.34;100.00;98898.20;1700057;83;21316;-73
2020/12/31 08:54:00;;;;;;;23.27;13.10;;;;;;;7.31;100.00;98890.13;1672824;85;21184;-73
2020/12/31 08:56:32;;;;;;;23.32;12.18;;;;;;;7.27;100.00;98891.88;1677135;85;21191;-73
2020/12/31 08:59:07;;;;;;;;;;;;;;;7.28;100.00;98898.80;1605009;87;21635;-74
2020/12/31 09:01:34;;;;;;;23.18;12.33;;;;;;;7.28;100.00;98894.36;1655331;86;20167;-73
2020/12/31 09:04:20;;;;;;;23.60;13.00;;;;;;;7.27;100.00;98889.24;1648460;86;21328;-73
2020/12/31 09:06:57;;;;;;;21.73;12.60;;;;;;;7.25;100.00;98887.25;1677257;84;21231;-73
2020/12/31 09:09:27;;;;;;;21.42;11.57;;;;;;;7.26;100.00;98891.55;1641486;86;21337;-73
2020/12/31 09:12:04;;;;;;;21.93;12.20;;;;;;;7.31;100.00;98891.91;1674271;85;21156;-72
2020/12/31 09:14:38;;;;;;;21.12;12.45;;;;;;;7.31;100.00;98885.34;1649829;86;21243;-73
2020/12/31 09:17:24;;;;;;;20.80;12.10;;;;;;;7.33;100.00;98884.70;1658689;86;21194;-73
2020/12/31 09:19:57;;;;;;;16.77;11.05;;;;;;;7.34;100.00;98886.38;1661576;86;21199;-73
2020/12/31 09:22:26;;;;;;;17.05;10.15;;;;;;;7.36;100.00;98889.19;1674808;84;21321;-73
2020/12/31 09:24:54;;;;;;;19.45;11.12;;;;;;;7.39;100.00;98880.19;1654359;86;21640;-73
2020/12/31 09:27:26;;;;;;;16.20;10.28;;;;;;;7.42;100.00;98881.19;1650272;86;21294;-74
2020/12/31 09:29:59;;;;;;;18.85;11.55;;;;;;;7.42;100.00;98879.87;1664815;86;21332;-73
2020/12/31 09:32:28;;;;;;;17.23;10.38;;;;;;;7.42;100.00;98883.83;1662905;86;21622;-73
2020/12/31 09:34:58;;;;;;;14.00;9.30;;;;;;;7.44;100.00;98876.61;1679760;85;21176;-73
2020/12/31 09:37:26;;;;;;;16.32;10.68;;;;;;;7.46;100.00;98880.41;1651352;86;21191;-73
2020/12/31 09:39:54;;;;;;;15.58;10.43;;;;;;;7.45;100.00;98875.64;1674903;85;21189;-73
2020/12/31 09:42:22;;;;;;;16.70;10.80;;;;;;;7.45;100.00;98884.86;1628976;86;21187;-73
2020/12/31 09:44:51;;;;;;;14.93;10.00;;;;;;;7.44;100.00;98881.05;1719231;83;21325;-73
2020/12/31 09:47:18;;;;;;;12.55;8.85;;;;;;;7.45;100.00;98877.45;1713753;83;21213;-73
2020/12/31 09:49:47;;;;;;;14.53;9.68;;;;;;;7.46;100.00;98868.57;1703628;83;21219;-73
2020/12/31 09:52:15;;;;;;;14.38;9.50;;;;;;;7.46;100.00;98869.39;1669389;85;21187;-73
2020/12/31 09:54:43;;;;;;;17.00;10.28;;;;;;;7.47;100.00;98869.75;1680283;85;21417;-73
2020/12/31 09:57:10;;;;;;;14.33;9.78;;;;;;;7.47;100.00;98868.43;1615287;86;22209;-72
2020/12/31 09:59:38;;;;;;;13.85;9.78;;;;;;;7.47;100.00;98867.12;1614569;87;21310;-73
2020/12/31 10:02:07;;;;;;;13.68;9.43;;;;;;;7.49;100.00;98867.80;1633244;86;21168;-72
2020/12/31 10:04:34;;;;;;;13.65;9.93;;;;;;;7.51;100.00;98863.20;1654972;86;21199;-72
2020/12/31 10:07:02;;;;;;;14.70;10.13;;;;;;;7.52;100.00;98857.48;1654228;87;21192;-73
2020/12/31 10:09:32;;;;;;;15.53;9.65;;;;;;;7.53;100.00;98856.48;1629655;86;21159;-73
2020/12/31 10:11:59;;;;;;;14.85;9.20;;;;;;;7.58;100.00;98859.51;1642128;86;21326;-74
2020/12/31 10:14:28;;;;;;;14.45;9.50;;;;;;;7.63;100.00;98859.05;1662269;86;21223;-73
2020/12/31 10:16:56;;;;;;;15.23;9.40;;;;;;;7.65;100.00;98858.41;1653927;86;21766;-72
2020/12/31 10:19:24;;;;;;;15.65;9.88;;;;;;;7.66;100.00;98856.13;1648455;86;21226;-71
2020/12/31 10:21:51;;;;;;;17.73;10.25;;;;;;;7.65;100.00;98854.45;1653929;86;21204;-72
2020/12/31 10:24:19;;;;;;;18.20;9.40;;;;;;;7.64;100.00;98852.82;1643925;86;21220;-72
2020/12/31 10:26:48;;;;;;;15.18;9.65;;;;;;;7.64;100.00;98842.30;1694922;84;21191;-71
2020/12/31 10:29:15;;;;;;;15.70;8.85;;;;;;;7.63;100.00;98838.00;1658035;86;21167;-72
2020/12/31 10:31:43;;;;;;;15.10;10.25;;;;;;;7.63;100.00;98840.63;1678876;85;21191;-73
2020/12/31 10:34:11;;;;;;;17.00;9.38;;;;;;;7.61;100.00;98839.95;1592315;89;21168;-71
2020/12/31 10:36:39;;;;;;;14.23;9.48;;;;;;;7.62;100.00;98838.49;1689335;83;21247;-71
2020/12/31 10:39:07;;;;;;;13.58;8.90;;;;;;;7.65;100.00;98839.98;1652648;85;21607;-71
2020/12/31 10:41:34;;;;;;;14.20;9.25;;;;;;;7.66;100.00;98820.10;1672893;85;21203;-71
2020/12/31 10:44:02;;;;;;;13.93;9.03;;;;;;;7.67;100.00;98817.83;1688727;83;21187;-71
2020/12/31 10:46:31;;;;;;;11.73;8.23;;;;;;;7.68;100.00;98814.20;1671538;85;21205;-71
2020/12/31 10:49:00;;;;;;;13.40;8.08;;;;;;;7.72;100.00;98808.14;1655713;85;21172;-71
2020/12/31 10:51:28;;;;;;;12.88;8.45;;;;;;;7.76;100.00;98809.49;1705415;84;21164;-71
2020/12/31 10:53:56;;;;;;;13.55;8.90;;;;;;;7.77;100.00;98810.66;1654341;85;21191;-72
2020/12/31 10:56:24;;;;;;;14.03;9.00;;;;;;;7.78;100.00;98812.83;1659685;85;21627;-71
2020/12/31 10:58:52;;;;;;;13.00;9.30;;;;;;;7.79;100.00;98810.52;1672029;85;21188;-72
2020/12/31 11:01:20;;;;;;;12.18;9.60;;;;;;;7.81;100.00;98807.24;1672326;85;21421;-72
2020/12/31 11:03:48;;;;;;;14.93;10.30;;;;;;;7.83;100.00;98812.36;1677113;85;21195;-72
2020/12/31 11:06:26;;;;;;;19.50;10.95;;;;;;;7.84;100.00;98811.39;1671128;85;21175;-72
2020/12/31 11:08:55;;;;;;;13.35;9.65;;;;;;;7.84;100.00;98811.39;1672440;85;21199;-71
2020/12/31 11:11:30;;;;;;;13.18;9.53;;;;;;;7.83;100.00;98798.70;1687852;85;21187;-72
2020/12/31 11:13:58;;;;;;;17.73;11.12;;;;;;;7.84;100.00;98804.31;1692237;83;21294;-72
2020/12/31 11:16:25;;;;;;;19.60;11.73;;;;;;;7.82;100.00;98805.43;1697457;83;21607;-71
2020/12/31 11:18:53;;;;;;;19.15;12.23;;;;;;;7.81;100.00;98805.92;1708144;83;21238;-70
2020/12/31 11:21:21;;;;;;;15.28;11.50;;;;;;;7.76;100.00;98805.08;1672237;85;21219;-71
2020/12/31 11:23:48;;;;;;;15.93;10.55;;;;;;;7.76;100.00;98805.55;1630671;86;21216;-71
2020/12/31 11:26:19;;;;;;;17.02;12.70;;;;;;;7.75;100.00;98802.59;1666620;85;21322;-71
2020/12/31 11:28:50;;;;;;;16.77;11.88;;;;;;;7.71;100.00;98802.06;1712020;84;21628;-71
2020/12/31 11:31:26;;;;;;;20.43;12.88;;;;;;;7.68;100.00;98808.12;1703051;83;21183;-71
2020/12/31 11:33:56;;;;;;;17.48;11.50;;;;;;;7.64;100.00;98803.64;1705391;83;21159;-71
2020/12/31 11:36:24;;;;;;;15.90;10.60;;;;;;;7.63;100.00;98804.63;1713461;83;21673;-71
2020/12/31 11:38:53;;;;;;;16.70;11.95;;;;;;;7.64;100.00;98803.64;1700811;83;21187;-71